Collamer, Indiana
Current Conditions -  °F | °C
As of 1:35 PM on Friday 24 Oct 2014 (Local Time) from KHHG Reporting Station
Overcast Overcast  
Wind Chill: 58°   Ceiling: 2600
Heat Index: 58°   Visibility: 10mi
Dew Point: 50°   Wind: 5mph
Humidity: 72%   Direction: 270°W
Pressure: 30.06"   Gusts: NA
Location:  41.056°N, 85.6112°W
Report Text: KHHG 241735Z AUTO 27004KT 10SM OVC026 15/10 A3006 RMK AO2 T01470098
Loading
Personal Weather Stations






























Interactive Weather Map
Tropical Storm Tracking
New forecast layout! Learn more

10-Day Weather Forecast

Advertisements
Track Severe Weather on mobile